Estación Meteorológica Peña el Pijo (Robertgarden) [ 01/30/23 14:56:39 CET ]

Fecha Hora Presion(HPa) Temp (°C) Humedad % Rocio (°C) Viento ( m/s) Direccion Lluvia 1Hora(mm) Lluvia 24H(mm) LLuvia Total(mm)
2012-Apr-26 01:01:18 1001.700 8.1 62 1.2         158.50
2012-Apr-26 02:01:12 1001.600 7.3 65 1.1         158.50
2012-Apr-26 03:03:16 1001.300 6.6 68 1.1         158.50
2012-Apr-26 04:01:12 1001.200 5.9 70 0.9         158.50
2012-Apr-26 05:01:13 1001.300 5.1 72 0.5         158.50
2012-Apr-26 06:01:14 1001.300 4.5 74 0.2         158.50
2012-Apr-26 07:01:17 1001.400 3.8 75 -0.2         158.50
2012-Apr-26 08:01:14 1001.800 3.8 77 0.1         158.50
2012-Apr-26 09:01:16 1002.100 8.5 66 2.5         158.50
2012-Apr-26 10:01:17 1002.300 17.7 42 4.6         158.50
2012-Apr-26 11:01:16 1002.500 22.5 21 -1.0 1.7 ESE     158.50
2012-Apr-26 12:01:12 1002.900 25.4 18 -1.0         158.50
2012-Apr-26 13:01:17 1003.000 25.9 18 -0.6 3.3 SE     158.50
2012-Apr-26 14:01:12 1002.600 27.2 17 -0.5         158.50
2012-Apr-26 15:01:12 1002.600 27.6 16 -1.1 0.5 S     158.50
2012-Apr-26 16:01:16 1002.300 28.4 17 0.5 1.2 SSE     158.50
2012-Apr-26 17:01:14 1001.900 28.2 17 0.3 0.7 ESE     158.50
2012-Apr-26 18:01:14 1001.700 28.3 19 2.3         158.50
2012-Apr-26 19:01:14 1001.800 26.8 20 2.0 0.7 SE     158.50
2012-Apr-26 20:01:14 1002.200 23.5 23 1.0         158.50
2012-Apr-26 21:01:12 1002.800 20.1 35 4.0         158.50
2012-Apr-26 22:01:12 1003.500 17.8 39 3.6         158.50
2012-Apr-26 23:01:14 1004.500 15.8 45 3.8         158.50

Temperatura Máxima:28°    Temperatura Mínima:
Presión Máxima:1004.500 Hpa    Presión Mínima:1001.200 Hpa


Volver